createdAt,value
2023-05-19T00:00:02.190Z,5.50
2023-05-19T00:05:05.091Z,4.63
2023-05-19T00:07:32.823Z,4.93
2023-05-19T00:10:00.270Z,6.10
2023-05-19T00:12:28.050Z,3.80
2023-05-19T00:14:55.506Z,3.80
2023-05-19T00:17:23.570Z,3.25
2023-05-19T00:19:50.805Z,3.45
2023-05-19T00:22:17.909Z,4.68
2023-05-19T00:24:45.099Z,3.63
2023-05-19T00:27:12.352Z,4.22
2023-05-19T00:29:39.482Z,3.17
2023-05-19T00:32:06.792Z,3.20
2023-05-19T00:34:34.218Z,2.75
2023-05-19T00:37:01.395Z,4.43
2023-05-19T00:39:28.626Z,4.63
2023-05-19T00:41:55.973Z,4.45
2023-05-19T00:44:23.128Z,2.80
2023-05-19T00:46:50.741Z,2.92
2023-05-19T00:49:17.927Z,2.22
2023-05-19T00:51:45.691Z,2.50
2023-05-19T00:54:12.993Z,3.05
2023-05-19T00:56:40.256Z,3.00
2023-05-19T00:59:08.414Z,2.42
2023-05-19T01:01:36.881Z,2.80
2023-05-19T01:04:05.528Z,1.92
2023-05-19T01:06:32.950Z,1.90
2023-05-19T01:09:00.122Z,1.90
2023-05-19T01:11:27.402Z,2.38
2023-05-19T01:13:55.024Z,2.42
2023-05-19T01:16:35.102Z,4.25
2023-05-19T01:19:22.550Z,1.80
2023-05-19T01:22:29.014Z,3.15
2023-05-19T01:25:42.780Z,1.95
2023-05-19T01:28:35.549Z,2.50
2023-05-19T01:31:06.357Z,3.15
2023-05-19T01:33:34.312Z,2.75
2023-05-19T01:36:03.957Z,2.17
2023-05-19T01:38:34.182Z,2.38
2023-05-19T01:41:04.338Z,2.53
2023-05-19T01:43:32.496Z,2.50
2023-05-19T01:46:00.844Z,2.28
2023-05-19T01:48:30.134Z,4.10
2023-05-19T01:50:57.605Z,2.22
2023-05-19T01:53:25.395Z,2.03
2023-05-19T01:55:54.900Z,4.68
2023-05-19T01:58:43.400Z,2.10
2023-05-19T02:01:33.265Z,3.85
2023-05-19T02:04:30.534Z,2.10
2023-05-19T02:07:26.589Z,1.85
2023-05-19T02:10:11.453Z,3.05
2023-05-19T02:12:41.161Z,2.53
2023-05-19T02:15:25.045Z,2.58
2023-05-19T02:17:55.694Z,1.58
2023-05-19T02:20:43.070Z,3.13
2023-05-19T02:23:10.431Z,2.10
2023-05-19T02:25:37.617Z,2.28
2023-05-19T02:28:05.030Z,4.13
2023-05-19T02:30:32.521Z,3.15
2023-05-19T02:33:00.585Z,4.13
2023-05-19T02:35:28.286Z,6.55
2023-05-19T02:37:55.500Z,2.58
2023-05-19T02:40:23.075Z,3.72
2023-05-19T02:42:50.269Z,3.38
2023-05-19T02:45:17.562Z,2.92
2023-05-19T02:47:44.839Z,4.93
2023-05-19T02:50:11.990Z,2.80
2023-05-19T02:52:39.421Z,5.20
2023-05-19T02:55:26.913Z,4.50
2023-05-19T02:57:54.086Z,3.08
2023-05-19T03:00:21.374Z,7.43
2023-05-19T03:02:48.757Z,4.00
2023-05-19T03:05:16.354Z,6.40
2023-05-19T03:07:43.535Z,4.50
2023-05-19T03:10:10.887Z,4.10
2023-05-19T03:12:38.147Z,4.95
2023-05-19T03:15:06.073Z,4.15
2023-05-19T03:17:34.451Z,4.43
2023-05-19T03:20:01.902Z,3.05
2023-05-19T03:22:32.395Z,2.78
2023-05-19T03:24:59.782Z,2.97
2023-05-19T03:27:26.883Z,6.10
2023-05-19T03:29:54.146Z,3.15
2023-05-19T03:32:21.446Z,2.90
2023-05-19T03:34:48.727Z,4.75
2023-05-19T03:37:15.987Z,3.40
2023-05-19T03:39:43.117Z,3.63
2023-05-19T03:42:10.672Z,6.63
2023-05-19T03:44:37.966Z,4.63
2023-05-19T03:47:05.549Z,3.63
2023-05-19T03:49:32.745Z,4.68
2023-05-19T03:52:00.059Z,6.43
2023-05-19T03:54:27.643Z,5.63
2023-05-19T03:56:55.117Z,4.53
2023-05-19T03:59:23.734Z,3.58
2023-05-19T04:01:51.819Z,4.65
2023-05-19T04:04:19.061Z,3.90
2023-05-19T04:06:46.928Z,4.43
2023-05-19T04:09:15.931Z,4.13
2023-05-19T04:11:43.405Z,3.83
2023-05-19T04:14:10.604Z,4.95
2023-05-19T04:16:38.484Z,7.20
2023-05-19T04:19:05.966Z,3.55
2023-05-19T04:21:52.198Z,3.08
2023-05-19T04:24:19.387Z,5.45
2023-05-19T04:26:47.663Z,4.40
2023-05-19T04:29:18.377Z,4.53
2023-05-19T04:31:46.135Z,3.50
2023-05-19T04:34:13.473Z,4.45
2023-05-19T04:36:40.799Z,4.28
2023-05-19T04:39:10.184Z,6.78
2023-05-19T04:41:40.498Z,6.47
2023-05-19T04:44:09.534Z,4.25
2023-05-19T04:46:36.966Z,6.78
2023-05-19T04:49:04.109Z,3.97
2023-05-19T04:51:31.632Z,5.20
2023-05-19T04:53:58.963Z,10.70
2023-05-19T04:56:27.537Z,7.28
2023-05-19T04:58:54.748Z,4.72
2023-05-19T05:01:26.481Z,6.07
2023-05-19T05:03:59.281Z,7.85
2023-05-19T05:06:26.906Z,5.55
2023-05-19T05:08:54.101Z,5.55
2023-05-19T05:11:22.208Z,8.43
2023-05-19T05:13:49.809Z,6.50
2023-05-19T05:16:17.251Z,7.47
2023-05-19T05:18:46.993Z,7.57
2023-05-19T05:21:14.426Z,12.75
2023-05-19T05:23:41.857Z,13.57
2023-05-19T05:26:18.919Z,13.05
2023-05-19T05:28:46.167Z,8.45
2023-05-19T05:31:13.316Z,7.85
2023-05-19T05:33:41.155Z,6.93
2023-05-19T05:36:08.842Z,7.13
2023-05-19T05:38:36.388Z,5.47
2023-05-19T05:41:03.811Z,6.47
2023-05-19T05:43:31.418Z,8.57
2023-05-19T05:45:58.710Z,6.32
2023-05-19T05:48:26.433Z,6.75
2023-05-19T05:50:54.777Z,10.50
2023-05-19T05:53:23.355Z,6.57
2023-05-19T05:55:51.313Z,7.10
2023-05-19T05:58:18.614Z,8.77
2023-05-19T06:00:47.971Z,9.48
2023-05-19T06:03:15.173Z,6.75
2023-05-19T06:05:42.445Z,7.60
2023-05-19T06:08:09.671Z,6.32
2023-05-19T06:10:39.090Z,6.88
2023-05-19T06:13:06.538Z,5.88
2023-05-19T06:15:33.922Z,8.77
2023-05-19T06:18:01.312Z,7.70
2023-05-19T06:20:29.036Z,5.70
2023-05-19T06:22:56.782Z,5.75
2023-05-19T06:25:24.999Z,8.82
2023-05-19T06:27:52.428Z,7.65
2023-05-19T06:30:19.714Z,7.40
2023-05-19T06:32:47.092Z,9.27
2023-05-19T06:35:14.881Z,7.38
2023-05-19T06:37:42.148Z,6.88
2023-05-19T06:40:10.412Z,7.68
2023-05-19T06:42:37.555Z,6.80
2023-05-19T06:45:05.148Z,7.22
2023-05-19T06:47:35.256Z,9.73
2023-05-19T06:50:02.540Z,8.35
2023-05-19T06:52:33.581Z,8.23
2023-05-19T06:55:00.778Z,7.25
2023-05-19T06:57:27.950Z,9.70
2023-05-19T06:59:55.081Z,8.43
2023-05-19T07:02:22.146Z,11.50
2023-05-19T07:04:49.430Z,9.82
2023-05-19T07:07:16.787Z,10.20
2023-05-19T07:09:43.937Z,9.05
2023-05-19T07:12:11.195Z,7.90
2023-05-19T07:14:39.048Z,7.80
2023-05-19T07:17:06.329Z,10.80
2023-05-19T07:19:33.473Z,8.90
2023-05-19T07:22:00.856Z,9.23
2023-05-19T07:24:28.425Z,10.30
2023-05-19T07:26:55.606Z,7.30
2023-05-19T07:29:22.973Z,9.20
2023-05-19T07:31:54.321Z,9.18
2023-05-19T07:34:22.181Z,9.18
2023-05-19T07:36:49.481Z,7.55
2023-05-19T07:39:16.813Z,10.00
2023-05-19T07:41:44.011Z,10.77
2023-05-19T07:44:31.678Z,9.85
2023-05-19T07:46:59.315Z,9.82
2023-05-19T07:49:26.559Z,10.93
2023-05-19T07:51:54.153Z,8.00
2023-05-19T07:54:21.815Z,9.05
2023-05-19T07:56:49.001Z,9.73
2023-05-19T07:59:16.626Z,7.75
2023-05-19T08:02:02.327Z,8.88
2023-05-19T08:04:29.767Z,8.82
2023-05-19T08:06:57.132Z,12.95
2023-05-19T08:09:43.082Z,7.82
2023-05-19T08:12:10.348Z,9.63
2023-05-19T08:14:37.577Z,9.77
2023-05-19T08:17:05.114Z,9.00
2023-05-19T08:19:32.411Z,10.70
2023-05-19T08:22:01.327Z,9.48
2023-05-19T08:24:33.006Z,11.65
2023-05-19T08:27:01.594Z,10.25
2023-05-19T08:29:29.033Z,10.23
2023-05-19T08:31:56.496Z,8.93
2023-05-19T08:34:23.769Z,7.88
2023-05-19T08:36:50.981Z,9.50
2023-05-19T08:39:20.181Z,9.57
2023-05-19T08:41:47.320Z,10.10
2023-05-19T08:44:15.281Z,12.27
2023-05-19T08:46:43.859Z,7.95
2023-05-19T08:49:14.134Z,8.63
2023-05-19T08:52:09.685Z,7.80
2023-05-19T08:54:45.409Z,7.60
2023-05-19T08:57:13.287Z,9.02
2023-05-19T08:59:43.338Z,8.43
2023-05-19T09:02:13.217Z,10.38
2023-05-19T09:04:42.099Z,7.35
2023-05-19T09:07:09.572Z,10.25
2023-05-19T09:09:36.710Z,6.38
2023-05-19T09:12:04.728Z,8.25
2023-05-19T09:14:33.319Z,7.00
2023-05-19T09:17:01.659Z,4.40
2023-05-19T09:19:30.172Z,7.15
2023-05-19T09:22:03.441Z,5.43
2023-05-19T09:24:31.132Z,9.65
2023-05-19T09:27:00.036Z,6.50
2023-05-19T09:29:27.649Z,7.03
2023-05-19T09:32:00.748Z,9.35
2023-05-19T09:34:28.565Z,6.70
2023-05-19T09:36:56.024Z,6.60
2023-05-19T09:39:24.187Z,5.25
2023-05-19T09:41:55.399Z,6.30
2023-05-19T09:44:32.858Z,6.68
2023-05-19T09:47:00.260Z,7.38
2023-05-19T09:49:32.987Z,7.57
2023-05-19T09:52:03.918Z,4.97
2023-05-19T09:54:32.619Z,5.35
2023-05-19T09:57:01.794Z,5.28
2023-05-19T09:59:33.014Z,5.65
2023-05-19T10:02:02.698Z,11.90
2023-05-19T10:04:31.762Z,9.00
2023-05-19T10:07:00.226Z,4.20
2023-05-19T10:09:29.524Z,8.10
2023-05-19T10:11:58.333Z,7.82
2023-05-19T10:14:29.267Z,5.15
2023-05-19T10:16:57.944Z,8.55
2023-05-19T10:19:27.561Z,7.35
2023-05-19T10:21:55.926Z,5.85
2023-05-19T10:24:23.515Z,6.15
2023-05-19T10:27:12.609Z,5.80
2023-05-19T10:29:46.012Z,6.15
2023-05-19T10:32:19.892Z,5.63
2023-05-19T10:35:04.876Z,7.80
2023-05-19T10:37:38.105Z,7.45
2023-05-19T10:42:56.754Z,5.60
2023-05-19T10:45:29.005Z,4.22
2023-05-19T10:47:56.508Z,5.47
2023-05-19T10:50:23.814Z,6.10
2023-05-19T10:52:56.223Z,6.00
2023-05-19T10:56:04.849Z,3.80
2023-05-19T10:58:44.298Z,6.18
2023-05-19T11:01:17.150Z,4.78
2023-05-19T11:03:52.411Z,9.02
2023-05-19T11:06:36.584Z,6.25
2023-05-19T11:09:16.682Z,3.83
2023-05-19T11:11:51.988Z,3.70
2023-05-19T11:14:28.986Z,3.42
2023-05-19T11:17:00.316Z,7.13
2023-05-19T11:19:32.763Z,4.47
2023-05-19T11:22:14.048Z,4.40
2023-05-19T11:24:50.346Z,4.28
2023-05-19T11:27:31.857Z,3.65
2023-05-19T11:30:11.773Z,5.85
2023-05-19T11:32:39.680Z,7.68
2023-05-19T11:35:08.913Z,5.07
2023-05-19T11:37:36.957Z,5.50
2023-05-19T11:40:07.421Z,2.50
2023-05-19T11:42:37.064Z,3.90
2023-05-19T11:45:06.529Z,3.58
2023-05-19T11:47:51.632Z,6.10
2023-05-19T11:50:24.388Z,5.22
2023-05-19T11:52:52.648Z,6.75
2023-05-19T11:55:23.484Z,3.67
2023-05-19T11:58:04.541Z,5.13
2023-05-19T12:00:40.456Z,6.20
2023-05-19T12:03:09.152Z,4.10
2023-05-19T12:05:48.745Z,6.50
2023-05-19T12:08:18.834Z,5.55
2023-05-19T12:10:52.132Z,6.68
2023-05-19T12:13:20.160Z,8.73
2023-05-19T12:15:47.488Z,4.60
2023-05-19T12:18:14.774Z,4.50
2023-05-19T12:20:42.174Z,7.10
2023-05-19T12:23:10.076Z,4.30
2023-05-19T12:25:38.525Z,4.60
2023-05-19T12:28:06.060Z,4.95
2023-05-19T12:30:34.784Z,4.18
2023-05-19T12:33:03.430Z,5.03
2023-05-19T12:35:34.737Z,4.85
2023-05-19T12:38:06.603Z,4.22
2023-05-19T12:40:37.785Z,4.63
2023-05-19T12:43:06.962Z,5.75
2023-05-19T12:45:39.913Z,7.43
2023-05-19T12:48:12.484Z,5.97
2023-05-19T12:50:39.884Z,5.57
2023-05-19T12:53:11.914Z,5.38
2023-05-19T12:55:44.117Z,4.22
2023-05-19T12:58:16.152Z,4.67
2023-05-19T13:00:46.476Z,8.33
2023-05-19T13:03:19.180Z,3.63
2023-05-19T13:05:48.765Z,6.38
2023-05-19T13:08:18.697Z,5.38
2023-05-19T13:10:46.984Z,3.60
2023-05-19T13:13:14.728Z,6.25
2023-05-19T13:15:43.946Z,3.28
2023-05-19T13:18:13.081Z,10.70
2023-05-19T13:20:42.278Z,5.32
2023-05-19T13:23:13.843Z,4.00
2023-05-19T13:25:41.948Z,4.43
2023-05-19T13:28:09.856Z,4.32
2023-05-19T13:30:39.215Z,7.05
2023-05-19T13:33:10.376Z,2.17
2023-05-19T13:35:38.306Z,4.72
2023-05-19T13:38:08.059Z,6.70
2023-05-19T13:40:35.500Z,6.88
2023-05-19T13:43:04.585Z,7.00
2023-05-19T13:45:32.065Z,3.17
2023-05-19T13:47:59.634Z,3.53
2023-05-19T13:50:26.897Z,5.75
2023-05-19T13:52:54.250Z,5.53
2023-05-19T13:55:22.650Z,8.18
2023-05-19T13:57:49.839Z,7.32
2023-05-19T14:00:18.458Z,4.13
2023-05-19T14:02:45.781Z,4.88
2023-05-19T14:05:13.232Z,6.35
2023-05-19T14:07:40.617Z,2.92
2023-05-19T14:10:08.460Z,4.50
2023-05-19T14:12:49.581Z,4.20
2023-05-19T14:15:23.890Z,3.22
2023-05-19T14:17:53.191Z,4.75
2023-05-19T14:20:20.613Z,4.43
2023-05-19T14:22:49.738Z,5.15
2023-05-19T14:25:17.090Z,6.20
2023-05-19T14:27:44.334Z,4.53
2023-05-19T14:30:12.021Z,8.85
2023-05-19T14:32:39.347Z,4.22
2023-05-19T14:35:07.213Z,4.97
2023-05-19T14:37:34.461Z,5.05
2023-05-19T14:40:20.098Z,3.65
2023-05-19T14:42:48.361Z,3.95
2023-05-19T14:45:15.600Z,4.95
2023-05-19T14:48:01.386Z,6.45
2023-05-19T14:50:29.402Z,6.90
2023-05-19T14:52:57.595Z,4.18
2023-05-19T14:55:24.898Z,4.40
2023-05-19T14:57:52.073Z,2.63
2023-05-19T15:00:19.545Z,5.10
2023-05-19T15:02:47.991Z,7.20
2023-05-19T15:05:15.510Z,4.97
2023-05-19T15:07:42.706Z,3.65
2023-05-19T15:10:10.199Z,5.25
2023-05-19T15:12:37.738Z,4.07
2023-05-19T15:15:05.737Z,3.60
2023-05-19T15:17:37.183Z,3.92
2023-05-19T15:20:04.923Z,4.35
2023-05-19T15:22:51.029Z,3.72
2023-05-19T15:25:18.583Z,2.97
2023-05-19T15:27:45.813Z,4.00
2023-05-19T15:30:13.981Z,6.45
2023-05-19T15:32:41.230Z,3.35
2023-05-19T15:35:09.063Z,4.43
2023-05-19T15:37:36.200Z,3.53
2023-05-19T15:40:03.800Z,5.55
2023-05-19T15:42:50.378Z,2.67
2023-05-19T15:45:17.774Z,4.20
2023-05-19T15:47:45.159Z,7.97
2023-05-19T15:50:13.158Z,4.53
2023-05-19T15:52:41.696Z,4.13
2023-05-19T15:55:09.459Z,4.65
2023-05-19T15:57:36.751Z,5.53
2023-05-19T16:00:04.239Z,4.40
2023-05-19T16:02:33.778Z,5.03
2023-05-19T16:05:01.286Z,5.53
2023-05-19T16:07:31.466Z,4.20
2023-05-19T16:09:58.791Z,6.20
2023-05-19T16:12:44.386Z,3.80
2023-05-19T16:15:11.669Z,2.80
2023-05-19T16:17:38.962Z,4.65
2023-05-19T16:20:06.954Z,3.88
2023-05-19T16:22:34.270Z,3.03
2023-05-19T16:25:01.567Z,6.47
2023-05-19T16:27:31.945Z,3.60
2023-05-19T16:30:01.124Z,4.00
2023-05-19T16:32:28.826Z,5.43
2023-05-19T16:34:56.243Z,5.65
2023-05-19T16:37:42.350Z,4.72
2023-05-19T16:40:09.894Z,3.00
2023-05-19T16:42:36.981Z,4.95
2023-05-19T16:45:04.620Z,6.50
2023-05-19T16:47:33.105Z,8.10
2023-05-19T16:50:00.344Z,4.63
2023-05-19T16:52:27.613Z,3.90
2023-05-19T16:54:54.905Z,4.03
2023-05-19T16:57:22.297Z,3.80
2023-05-19T16:59:49.750Z,9.30
2023-05-19T17:02:17.027Z,6.38
2023-05-19T17:04:44.320Z,5.50
2023-05-19T17:07:17.598Z,5.32
2023-05-19T17:09:45.236Z,3.95
2023-05-19T17:12:13.444Z,4.47
2023-05-19T17:14:42.343Z,4.20
2023-05-19T17:17:09.920Z,5.97
2023-05-19T17:19:37.177Z,2.75
2023-05-19T17:22:04.540Z,7.22
2023-05-19T17:24:33.370Z,5.00
2023-05-19T17:27:01.197Z,3.03
2023-05-19T17:29:28.518Z,4.63
2023-05-19T17:31:56.185Z,6.20
2023-05-19T17:34:23.566Z,3.90
2023-05-19T17:36:50.818Z,5.32
2023-05-19T17:39:20.401Z,7.70
2023-05-19T17:41:47.558Z,4.53
2023-05-19T17:44:15.165Z,3.88
2023-05-19T17:46:42.450Z,3.92
2023-05-19T17:49:10.847Z,4.55
2023-05-19T17:51:38.402Z,4.35
2023-05-19T17:54:05.987Z,2.92
2023-05-19T17:56:34.730Z,2.92
2023-05-19T17:59:02.223Z,3.67
2023-05-19T18:01:29.684Z,9.05
2023-05-19T18:03:57.328Z,7.30
2023-05-19T18:06:25.747Z,5.13
2023-05-19T18:08:54.851Z,5.43
2023-05-19T18:11:23.132Z,6.97
2023-05-19T18:13:50.370Z,6.93
2023-05-19T18:16:17.863Z,5.20
2023-05-19T18:18:50.405Z,5.13
2023-05-19T18:21:18.221Z,2.70
2023-05-19T18:23:46.077Z,5.78
2023-05-19T18:26:13.805Z,4.22
2023-05-19T18:28:41.898Z,5.20
2023-05-19T18:31:11.058Z,4.75
2023-05-19T18:33:38.383Z,3.58
2023-05-19T18:36:06.117Z,2.90
2023-05-19T18:38:55.227Z,3.05
2023-05-19T18:41:22.432Z,2.28
2023-05-19T18:43:49.893Z,6.57
2023-05-19T18:46:39.199Z,3.45
2023-05-19T18:49:06.453Z,4.65
2023-05-19T18:51:36.047Z,3.38
2023-05-19T18:54:22.531Z,5.32
2023-05-19T18:56:49.809Z,4.05
2023-05-19T18:59:16.939Z,4.43
2023-05-19T19:01:44.257Z,5.10
2023-05-19T19:04:30.688Z,2.95
2023-05-19T19:06:58.126Z,4.32
2023-05-19T19:09:25.374Z,4.53
2023-05-19T19:11:52.662Z,3.70
2023-05-19T19:14:19.850Z,4.45
2023-05-19T19:16:47.027Z,3.78
2023-05-19T19:19:32.992Z,4.78
2023-05-19T19:22:00.158Z,3.22
2023-05-19T19:24:28.604Z,3.63
2023-05-19T19:26:55.852Z,2.80
2023-05-19T19:29:23.152Z,5.60
2023-05-19T19:31:50.449Z,3.50
2023-05-19T19:34:20.014Z,6.57
2023-05-19T19:36:48.038Z,4.10
2023-05-19T19:39:15.145Z,3.35
2023-05-19T19:41:42.587Z,3.85
2023-05-19T19:44:28.257Z,3.15
2023-05-19T19:46:55.539Z,9.05
2023-05-19T19:49:22.725Z,5.18
2023-05-19T19:51:49.825Z,3.45
2023-05-19T19:54:35.743Z,4.45
2023-05-19T19:57:03.048Z,6.07
2023-05-19T19:59:30.622Z,3.88
2023-05-19T20:01:57.869Z,3.40
2023-05-19T20:04:25.464Z,3.60
2023-05-19T20:06:53.008Z,4.60
2023-05-19T20:09:20.219Z,2.25
2023-05-19T20:11:47.415Z,5.32
2023-05-19T20:14:14.757Z,2.50
2023-05-19T20:16:42.306Z,3.75
2023-05-19T20:19:09.804Z,2.70
2023-05-19T20:21:36.982Z,4.15
2023-05-19T20:24:04.506Z,4.65
2023-05-19T20:26:32.182Z,3.50
2023-05-19T20:28:59.365Z,3.50
2023-05-19T20:31:26.721Z,4.85
2023-05-19T20:33:54.009Z,4.38
2023-05-19T20:36:21.234Z,7.70
2023-05-19T20:38:48.381Z,4.00
2023-05-19T20:41:15.584Z,3.25
2023-05-19T20:43:43.092Z,4.40
2023-05-19T20:46:10.724Z,2.63
2023-05-19T20:48:37.931Z,4.90
2023-05-19T20:51:05.485Z,5.47
2023-05-19T20:53:32.909Z,7.03
2023-05-19T20:56:00.170Z,4.65
2023-05-19T20:58:30.295Z,3.22
2023-05-19T21:00:58.157Z,6.40
2023-05-19T21:03:27.010Z,5.93
2023-05-19T21:05:55.396Z,5.22
2023-05-19T21:08:23.167Z,5.55
2023-05-19T21:10:50.889Z,6.07
2023-05-19T21:13:18.918Z,7.57
2023-05-19T21:15:46.169Z,6.32
2023-05-19T21:18:13.501Z,2.90
2023-05-19T21:20:40.639Z,8.52
2023-05-19T21:23:07.914Z,3.67
2023-05-19T21:25:35.290Z,4.18
2023-05-19T21:28:02.414Z,3.30
2023-05-19T21:30:29.609Z,5.65
2023-05-19T21:32:57.292Z,1.88
2023-05-19T21:35:24.694Z,3.70
2023-05-19T21:37:51.864Z,2.95
2023-05-19T21:40:18.974Z,4.07
2023-05-19T21:42:48.479Z,6.30
2023-05-19T21:45:16.218Z,4.25
2023-05-19T21:47:43.554Z,3.72
2023-05-19T21:50:11.201Z,3.78
2023-05-19T21:52:38.743Z,3.08
2023-05-19T21:55:07.168Z,4.32
2023-05-19T21:57:34.357Z,2.10
2023-05-19T22:00:01.585Z,1.77
2023-05-19T22:02:29.636Z,2.58
2023-05-19T22:04:56.880Z,2.00
2023-05-19T22:07:27.086Z,2.72
2023-05-19T22:09:54.292Z,4.22
2023-05-19T22:12:21.582Z,3.58
2023-05-19T22:14:48.847Z,4.47
2023-05-19T22:17:16.167Z,2.20
2023-05-19T22:19:43.323Z,4.72
2023-05-19T22:22:14.128Z,2.58
2023-05-19T22:24:42.120Z,5.07
2023-05-19T22:27:09.402Z,2.55
2023-05-19T22:29:38.915Z,2.55
2023-05-19T22:32:07.959Z,7.82
2023-05-19T22:34:35.327Z,2.25
2023-05-19T22:37:03.035Z,3.45
2023-05-19T22:39:31.177Z,2.25
2023-05-19T22:41:58.282Z,3.55
2023-05-19T22:44:25.589Z,3.90
2023-05-19T22:46:52.814Z,2.03
2023-05-19T22:49:23.019Z,6.32
2023-05-19T22:51:50.587Z,3.65
2023-05-19T22:54:17.831Z,1.75
2023-05-19T22:56:46.494Z,3.45
2023-05-19T22:59:13.856Z,5.15
2023-05-19T23:01:41.202Z,1.70
2023-05-19T23:04:08.388Z,2.75
2023-05-19T23:06:35.534Z,1.67
2023-05-19T23:09:04.875Z,2.88
2023-05-19T23:11:32.016Z,2.90
2023-05-19T23:13:59.195Z,4.05
2023-05-19T23:16:26.640Z,2.72
2023-05-19T23:18:53.842Z,2.85
2023-05-19T23:21:21.033Z,2.95
2023-05-19T23:23:48.284Z,1.15
2023-05-19T23:26:15.628Z,2.20
2023-05-19T23:28:43.687Z,2.03
2023-05-19T23:31:11.145Z,2.55
2023-05-19T23:33:38.434Z,2.28
2023-05-19T23:36:08.003Z,2.03
2023-05-19T23:38:36.295Z,2.90
2023-05-19T23:41:03.987Z,2.30
2023-05-19T23:43:34.337Z,2.35
2023-05-19T23:46:01.963Z,1.98
2023-05-19T23:48:29.690Z,2.88
2023-05-19T23:50:58.291Z,3.22
2023-05-19T23:53:25.696Z,1.55
2023-05-19T23:55:52.953Z,2.28
2023-05-19T23:58:20.292Z,2.72
